createdAt,value
2024-02-02T00:00:30.398Z,69.67
2024-02-02T00:01:02.333Z,66.67
2024-02-02T00:01:34.725Z,63.33
2024-02-02T00:02:07.260Z,61.00
2024-02-02T00:02:40.343Z,59.67
2024-02-02T00:03:12.296Z,59.00
2024-02-02T00:03:44.327Z,59.00
2024-02-02T00:04:16.270Z,59.33
2024-02-02T00:04:48.157Z,60.00
2024-02-02T00:05:19.936Z,59.33
2024-02-02T00:05:51.782Z,58.67
2024-02-02T00:06:23.791Z,57.67
2024-02-02T00:06:55.849Z,57.00
2024-02-02T00:07:27.879Z,57.00
2024-02-02T00:07:59.787Z,56.67
2024-02-02T00:08:31.549Z,56.00
2024-02-02T00:09:07.210Z,56.00
2024-02-02T00:09:39.069Z,56.00
2024-02-02T00:10:10.901Z,55.67
2024-02-02T00:10:42.786Z,55.00
2024-02-02T00:11:14.603Z,54.00
2024-02-02T00:11:47.477Z,53.67
2024-02-02T00:12:19.402Z,53.00
2024-02-02T00:12:51.282Z,52.33
2024-02-02T00:13:23.047Z,52.00
2024-02-02T00:13:54.992Z,51.33
2024-02-02T00:14:26.831Z,51.00
2024-02-02T00:14:58.734Z,50.00
2024-02-02T00:15:30.660Z,48.67
2024-02-02T00:16:02.488Z,48.00
2024-02-02T00:16:34.235Z,47.00
2024-02-02T00:17:06.241Z,47.00
2024-02-02T00:17:37.997Z,46.67
2024-02-02T00:18:10.201Z,46.00
2024-02-02T00:18:42.218Z,46.33
2024-02-02T00:19:14.228Z,47.00
2024-02-02T00:19:46.201Z,47.00
2024-02-02T00:20:18.414Z,47.00
2024-02-02T00:20:50.313Z,46.67
2024-02-02T00:21:22.250Z,46.00
2024-02-02T00:21:54.314Z,46.00
2024-02-02T00:22:26.209Z,45.67
2024-02-02T00:22:57.993Z,45.00
2024-02-02T00:23:29.854Z,45.00
2024-02-02T00:24:01.706Z,44.33
2024-02-02T00:24:33.720Z,44.00
2024-02-02T00:25:05.709Z,44.00
2024-02-02T00:25:37.806Z,44.00
2024-02-02T00:26:09.631Z,44.67
2024-02-02T00:26:41.466Z,45.00
2024-02-02T00:27:13.330Z,44.33
2024-02-02T00:27:45.382Z,44.00
2024-02-02T00:28:17.152Z,44.00
2024-02-02T00:28:49.012Z,43.33
2024-02-02T00:29:20.898Z,42.33
2024-02-02T00:29:52.746Z,41.33
2024-02-02T00:30:24.756Z,41.00
2024-02-02T00:30:56.577Z,40.00
2024-02-02T00:31:28.325Z,40.00
2024-02-02T00:32:00.123Z,40.00
2024-02-02T00:32:32.023Z,40.00
2024-02-02T00:33:04.299Z,40.00
2024-02-02T00:33:36.255Z,40.00
2024-02-02T00:34:08.614Z,40.00
2024-02-02T00:34:41.270Z,40.00
2024-02-02T00:35:15.871Z,40.00
2024-02-02T00:35:47.715Z,39.67
2024-02-02T00:36:19.567Z,39.00
2024-02-02T00:36:51.406Z,38.67
2024-02-02T00:37:23.191Z,38.00
2024-02-02T00:37:55.453Z,37.33
2024-02-02T00:38:27.311Z,37.00
2024-02-02T00:38:59.135Z,36.67
2024-02-02T00:39:31.080Z,36.00
2024-02-02T00:40:02.997Z,36.00
2024-02-02T00:40:34.787Z,35.00
2024-02-02T00:41:06.593Z,34.33
2024-02-02T00:41:38.425Z,34.00
2024-02-02T00:42:10.287Z,33.00
2024-02-02T00:42:43.724Z,32.67
2024-02-02T00:43:15.530Z,32.00
2024-02-02T00:43:47.421Z,32.00
2024-02-02T00:44:19.309Z,32.00
2024-02-02T00:44:51.184Z,32.00
2024-02-02T00:45:23.004Z,32.00
2024-02-02T00:45:54.879Z,32.00
2024-02-02T00:46:26.692Z,31.33
2024-02-02T00:46:58.461Z,31.00
2024-02-02T00:47:30.278Z,32.00
2024-02-02T00:48:02.743Z,32.00
2024-02-02T00:48:35.623Z,32.00
2024-02-02T00:49:07.853Z,32.00
2024-02-02T00:49:40.975Z,32.00
2024-02-02T00:50:13.042Z,32.00
2024-02-02T00:50:44.847Z,32.00
2024-02-02T00:51:16.766Z,32.00
2024-02-02T00:51:48.696Z,32.00
2024-02-02T00:52:20.715Z,32.00
2024-02-02T00:52:52.542Z,32.00
2024-02-02T00:53:24.380Z,32.00
2024-02-02T00:53:56.282Z,32.00
2024-02-02T00:54:28.233Z,32.00
2024-02-02T00:55:01.250Z,32.00
2024-02-02T00:55:33.030Z,32.00
2024-02-02T00:56:05.204Z,32.00
2024-02-02T00:56:37.157Z,32.33
2024-02-02T00:57:09.067Z,33.00
2024-02-02T00:57:40.961Z,33.00
2024-02-02T00:58:12.926Z,33.00
2024-02-02T00:58:44.694Z,33.00
2024-02-02T00:59:16.515Z,33.00
2024-02-02T00:59:49.497Z,33.00
2024-02-02T01:00:21.337Z,33.00
2024-02-02T01:00:53.317Z,33.00
2024-02-02T01:01:25.130Z,33.00
2024-02-02T01:01:56.993Z,33.33
2024-02-02T01:02:28.787Z,34.00
2024-02-02T01:03:00.744Z,34.00
2024-02-02T01:03:35.142Z,34.00
2024-02-02T01:04:07.151Z,34.00
2024-02-02T01:04:39.739Z,34.67
2024-02-02T01:05:11.702Z,35.00
2024-02-02T01:05:43.918Z,35.00
2024-02-02T01:06:16.022Z,35.00
2024-02-02T01:06:48.002Z,35.00
2024-02-02T01:07:19.883Z,35.00
2024-02-02T01:07:51.673Z,35.00
2024-02-02T01:08:23.532Z,35.00
2024-02-02T01:08:55.444Z,35.00
2024-02-02T01:09:27.362Z,35.67
2024-02-02T01:09:59.225Z,36.33
2024-02-02T01:10:31.013Z,37.33
2024-02-02T01:11:03.950Z,38.33
2024-02-02T01:11:35.891Z,39.00
2024-02-02T01:12:07.717Z,40.00
2024-02-02T01:12:40.518Z,40.67
2024-02-02T01:13:14.977Z,42.00
2024-02-02T01:13:46.779Z,42.33
2024-02-02T01:14:18.683Z,43.33
2024-02-02T01:14:50.548Z,44.67
2024-02-02T01:15:22.757Z,46.00
2024-02-02T01:15:54.690Z,47.33
2024-02-02T01:16:26.542Z,48.67
2024-02-02T01:16:58.357Z,50.00
2024-02-02T01:17:30.656Z,52.00
2024-02-02T01:18:04.048Z,55.00
2024-02-02T01:18:36.169Z,60.33
2024-02-02T01:19:08.360Z,65.00
2024-02-02T01:19:40.375Z,67.67
2024-02-02T01:20:15.067Z,69.00
2024-02-02T01:20:47.085Z,70.67
2024-02-02T01:21:19.110Z,72.00
2024-02-02T01:21:51.456Z,73.33
2024-02-02T01:22:23.262Z,75.67
2024-02-02T01:22:55.098Z,75.67
2024-02-02T01:23:27.214Z,76.33
2024-02-02T01:24:00.265Z,77.00
2024-02-02T01:24:32.866Z,76.67
2024-02-02T01:25:04.947Z,77.00
2024-02-02T01:25:36.793Z,76.00
2024-02-02T01:26:08.609Z,75.67
2024-02-02T01:26:40.410Z,75.00
2024-02-02T01:27:12.266Z,75.00
2024-02-02T01:27:44.383Z,74.00
2024-02-02T01:28:16.250Z,73.33
2024-02-02T01:28:48.066Z,73.00
2024-02-02T01:29:19.872Z,72.67
2024-02-02T01:29:51.871Z,72.00
2024-02-02T01:30:24.647Z,72.67
2024-02-02T01:30:56.561Z,73.67
2024-02-02T01:31:28.425Z,74.67
2024-02-02T01:32:00.311Z,75.33
2024-02-02T01:32:32.093Z,76.00
2024-02-02T01:33:04.284Z,76.00
2024-02-02T01:33:36.301Z,77.00
2024-02-02T01:34:08.414Z,77.00
2024-02-02T01:34:40.579Z,77.00
2024-02-02T01:35:12.456Z,77.00
2024-02-02T01:35:44.275Z,77.67
2024-02-02T01:36:16.333Z,78.67
2024-02-02T01:36:48.211Z,79.00
2024-02-02T01:37:20.004Z,79.00
2024-02-02T01:37:51.874Z,79.00
2024-02-02T01:38:24.128Z,79.33
2024-02-02T01:38:56.034Z,80.00
2024-02-02T01:39:27.903Z,80.00
2024-02-02T01:39:59.833Z,80.67
2024-02-02T01:40:31.673Z,81.00
2024-02-02T01:41:03.565Z,82.00
2024-02-02T01:41:35.373Z,82.67
2024-02-02T01:42:07.723Z,83.00
2024-02-02T01:42:39.607Z,84.00
2024-02-02T01:43:11.443Z,85.00
2024-02-02T01:43:43.258Z,86.00
2024-02-02T01:44:15.128Z,86.33
2024-02-02T01:44:46.952Z,87.67
2024-02-02T01:45:18.756Z,89.00
2024-02-02T01:45:52.029Z,90.33
2024-02-02T01:46:23.825Z,91.00
2024-02-02T01:46:55.763Z,91.00
2024-02-02T01:47:27.770Z,91.67
2024-02-02T01:48:00.400Z,92.67
2024-02-02T01:48:32.528Z,93.00
2024-02-02T01:49:04.552Z,93.33
2024-02-02T01:49:36.568Z,94.00
2024-02-02T01:50:09.553Z,95.00
2024-02-02T01:50:41.436Z,96.00
2024-02-02T01:51:13.682Z,96.00
2024-02-02T01:51:45.476Z,97.00
2024-02-02T01:52:17.453Z,96.67
2024-02-02T01:52:49.361Z,97.00
2024-02-02T01:53:21.162Z,97.67
2024-02-02T01:53:53.804Z,98.33
2024-02-02T01:54:25.793Z,99.33
2024-02-02T01:54:58.544Z,100.00
2024-02-02T01:55:30.446Z,100.00
2024-02-02T01:56:02.392Z,100.00
2024-02-02T01:56:34.925Z,100.00
2024-02-02T01:57:06.878Z,99.33
2024-02-02T01:57:39.428Z,99.00
2024-02-02T01:58:11.251Z,99.00
2024-02-02T01:58:43.119Z,98.33
2024-02-02T01:59:15.815Z,98.00
2024-02-02T01:59:48.389Z,98.00
2024-02-02T02:00:20.332Z,98.00
2024-02-02T02:00:52.420Z,97.00
2024-02-02T02:01:26.522Z,97.00
2024-02-02T02:01:58.581Z,97.00
2024-02-02T02:02:30.421Z,97.00
2024-02-02T02:03:02.994Z,96.00
2024-02-02T02:03:35.203Z,96.00
2024-02-02T02:04:07.267Z,96.00
2024-02-02T02:04:41.677Z,96.00
2024-02-02T02:05:13.521Z,96.00
2024-02-02T02:05:45.495Z,96.33
2024-02-02T02:06:17.511Z,97.00
2024-02-02T02:06:49.674Z,98.00
2024-02-02T02:07:21.731Z,98.00
2024-02-02T02:07:53.545Z,98.00
2024-02-02T02:08:25.353Z,98.67
2024-02-02T02:08:57.195Z,98.33
2024-02-02T02:09:29.034Z,99.00
2024-02-02T02:10:01.296Z,99.00
2024-02-02T02:10:33.457Z,99.00
2024-02-02T02:11:07.633Z,99.00
2024-02-02T02:11:39.602Z,99.00
2024-02-02T02:12:11.437Z,99.00
2024-02-02T02:12:43.258Z,99.00
2024-02-02T02:13:15.226Z,100.00
2024-02-02T02:13:47.221Z,100.00
2024-02-02T02:14:19.456Z,100.00
2024-02-02T02:14:51.390Z,100.00
2024-02-02T02:15:24.781Z,100.00
2024-02-02T02:15:56.657Z,99.00
2024-02-02T02:16:28.698Z,99.00
2024-02-02T02:17:00.472Z,99.00
2024-02-02T02:17:32.356Z,99.00
2024-02-02T02:18:04.266Z,99.00
2024-02-02T02:18:42.132Z,99.00
2024-02-02T02:19:19.975Z,99.00
2024-02-02T02:19:51.971Z,99.00
2024-02-02T02:20:26.816Z,99.00
2024-02-02T02:20:59.465Z,99.00
2024-02-02T02:21:31.360Z,98.67
2024-02-02T02:22:03.640Z,98.00
2024-02-02T02:22:35.486Z,98.00
2024-02-02T02:23:09.568Z,97.67
2024-02-02T02:23:41.442Z,96.67
2024-02-02T02:24:13.617Z,95.33
2024-02-02T02:24:45.513Z,94.33
2024-02-02T02:25:17.406Z,93.00
2024-02-02T02:25:49.263Z,93.00
2024-02-02T02:26:21.444Z,92.67
2024-02-02T02:26:53.778Z,92.00
2024-02-02T02:27:25.760Z,92.67
2024-02-02T02:27:57.635Z,93.00
2024-02-02T02:28:29.491Z,92.33
2024-02-02T02:29:01.319Z,92.00
2024-02-02T02:29:33.075Z,92.00
2024-02-02T02:30:05.316Z,92.00
2024-02-02T02:30:37.239Z,90.67
2024-02-02T02:31:18.547Z,89.00
2024-02-02T02:31:56.713Z,86.67
2024-02-02T02:32:28.813Z,83.67
2024-02-02T02:33:00.795Z,84.00
2024-02-02T02:33:32.831Z,84.00
2024-02-02T02:34:04.847Z,84.00
2024-02-02T02:34:37.533Z,85.00
2024-02-02T02:35:09.856Z,86.33
2024-02-02T02:35:41.761Z,89.33
2024-02-02T02:36:17.485Z,93.67
2024-02-02T02:36:49.376Z,99.00
2024-02-02T02:37:21.192Z,102.67
2024-02-02T02:37:54.254Z,104.00
2024-02-02T02:38:26.124Z,105.00
2024-02-02T02:38:58.006Z,106.00
2024-02-02T02:39:29.928Z,106.33
2024-02-02T02:40:01.784Z,107.67
2024-02-02T02:40:33.591Z,108.33
2024-02-02T02:41:06.224Z,109.67
2024-02-02T02:41:38.169Z,111.00
2024-02-02T02:42:10.282Z,110.00
2024-02-02T02:42:42.149Z,110.00
2024-02-02T02:43:13.968Z,109.67
2024-02-02T02:43:45.788Z,108.67
2024-02-02T02:44:17.586Z,105.67
2024-02-02T02:44:49.507Z,99.00
2024-02-02T02:45:21.417Z,91.33
2024-02-02T02:45:53.332Z,85.67
2024-02-02T02:46:25.148Z,82.67
2024-02-02T02:46:56.993Z,78.67
2024-02-02T02:47:28.971Z,74.33
2024-02-02T02:48:01.675Z,72.00
2024-02-02T02:48:34.385Z,71.67
2024-02-02T02:49:06.677Z,70.33
2024-02-02T02:49:38.652Z,68.00
2024-02-02T02:50:10.742Z,65.33
2024-02-02T02:50:42.592Z,64.00
2024-02-02T02:51:14.554Z,63.00
2024-02-02T02:51:47.049Z,62.00
2024-02-02T02:52:19.411Z,59.67
2024-02-02T02:52:51.222Z,59.33
2024-02-02T02:53:23.062Z,59.33
2024-02-02T02:53:54.902Z,57.00
2024-02-02T02:54:26.776Z,53.00
2024-02-02T02:54:58.626Z,52.00
2024-02-02T02:55:30.488Z,51.00
2024-02-02T02:56:02.305Z,50.33
2024-02-02T02:56:34.453Z,50.33
2024-02-02T02:57:06.408Z,50.00
2024-02-02T02:57:38.270Z,50.00
2024-02-02T02:58:10.099Z,50.33
2024-02-02T02:58:42.111Z,51.00
2024-02-02T02:59:13.916Z,51.00
2024-02-02T02:59:45.734Z,51.67
2024-02-02T03:00:18.540Z,52.00
2024-02-02T03:00:50.492Z,53.33
2024-02-02T03:01:22.961Z,54.67
2024-02-02T03:01:54.774Z,61.33
2024-02-02T03:02:26.606Z,87.00
2024-02-02T03:02:59.202Z,108.67
2024-02-02T03:03:31.156Z,124.00
2024-02-02T03:04:03.149Z,136.00
2024-02-02T03:04:35.134Z,141.00
2024-02-02T03:05:07.374Z,138.00
2024-02-02T03:05:39.587Z,131.67
2024-02-02T03:06:11.589Z,130.00
2024-02-02T03:06:43.670Z,133.00
2024-02-02T03:07:15.606Z,137.00
2024-02-02T03:07:47.497Z,140.33
2024-02-02T03:08:19.360Z,138.00
2024-02-02T03:08:51.233Z,137.00
2024-02-02T03:09:23.071Z,137.00
2024-02-02T03:09:54.913Z,137.00
2024-02-02T03:10:26.735Z,135.67
2024-02-02T03:11:01.610Z,133.67
2024-02-02T03:11:33.607Z,132.00
2024-02-02T03:12:05.718Z,130.00
2024-02-02T03:12:37.731Z,127.67
2024-02-02T03:13:09.557Z,125.67
2024-02-02T03:13:41.409Z,124.33
2024-02-02T03:14:14.736Z,123.33
2024-02-02T03:14:46.557Z,120.00
2024-02-02T03:15:18.459Z,117.33
2024-02-02T03:15:50.310Z,115.33
2024-02-02T03:16:22.163Z,113.33
2024-02-02T03:16:53.942Z,111.00
2024-02-02T03:17:25.725Z,110.00
2024-02-02T03:17:57.628Z,110.00
2024-02-02T03:18:29.665Z,110.00
2024-02-02T03:19:01.742Z,110.67
2024-02-02T03:19:33.682Z,112.67
2024-02-02T03:20:09.191Z,117.33
2024-02-02T03:20:41.081Z,127.00
2024-02-02T03:21:12.964Z,135.33
2024-02-02T03:21:44.823Z,140.67
2024-02-02T03:22:16.607Z,143.00
2024-02-02T03:22:48.427Z,142.33
2024-02-02T03:23:20.270Z,140.67
2024-02-02T03:23:52.188Z,140.00
2024-02-02T03:24:24.047Z,139.33
2024-02-02T03:24:55.955Z,139.00
2024-02-02T03:25:27.732Z,138.33
2024-02-02T03:25:59.518Z,136.33
2024-02-02T03:26:31.411Z,135.00
2024-02-02T03:27:03.401Z,133.33
2024-02-02T03:27:36.040Z,131.67
2024-02-02T03:28:07.877Z,130.67
2024-02-02T03:28:39.773Z,129.67
2024-02-02T03:29:11.697Z,128.00
2024-02-02T03:29:43.913Z,126.33
2024-02-02T03:30:15.834Z,125.33
2024-02-02T03:30:47.730Z,124.67
2024-02-02T03:31:19.707Z,123.67
2024-02-02T03:31:51.523Z,123.00
2024-02-02T03:32:23.350Z,123.00
2024-02-02T03:32:55.338Z,123.00
2024-02-02T03:33:27.428Z,122.00
2024-02-02T03:33:59.464Z,121.67
2024-02-02T03:34:31.482Z,121.00
2024-02-02T03:35:03.379Z,120.33
2024-02-02T03:35:35.363Z,117.67
2024-02-02T03:36:07.317Z,117.00
2024-02-02T03:36:39.230Z,117.00
2024-02-02T03:37:11.107Z,117.00
2024-02-02T03:37:43.041Z,117.00
2024-02-02T03:38:14.812Z,115.67
2024-02-02T03:38:46.624Z,114.00
2024-02-02T03:39:18.883Z,114.00
2024-02-02T03:39:51.032Z,114.00
2024-02-02T03:40:23.211Z,114.00
2024-02-02T03:40:55.015Z,114.00
2024-02-02T03:41:26.780Z,113.67
2024-02-02T03:41:58.562Z,113.00
2024-02-02T03:42:30.465Z,112.33
2024-02-02T03:43:02.771Z,112.00
2024-02-02T03:43:34.918Z,112.00
2024-02-02T03:44:06.775Z,112.00
2024-02-02T03:44:38.592Z,113.67
2024-02-02T03:45:10.589Z,117.67
2024-02-02T03:45:42.454Z,123.33
2024-02-02T03:46:14.313Z,129.33
2024-02-02T03:46:46.170Z,135.00
2024-02-02T03:47:17.985Z,140.00
2024-02-02T03:47:49.914Z,142.67
2024-02-02T03:48:21.842Z,143.67
2024-02-02T03:48:56.259Z,142.00
2024-02-02T03:49:28.231Z,142.00
2024-02-02T03:50:00.226Z,141.67
2024-02-02T03:50:32.095Z,141.33
2024-02-02T03:51:04.008Z,140.00
2024-02-02T03:51:35.967Z,138.67
2024-02-02T03:52:08.781Z,138.00
2024-02-02T03:52:40.735Z,137.67
2024-02-02T03:53:12.585Z,137.00
2024-02-02T03:53:44.452Z,137.00
2024-02-02T03:54:16.309Z,136.67
2024-02-02T03:54:48.132Z,136.00
2024-02-02T03:55:19.900Z,136.00
2024-02-02T03:55:51.719Z,136.00
2024-02-02T03:56:23.534Z,136.00
2024-02-02T03:56:55.817Z,135.33
2024-02-02T03:57:27.738Z,135.00
2024-02-02T03:57:59.563Z,135.00
2024-02-02T03:58:31.395Z,135.33
2024-02-02T03:59:03.218Z,135.00
2024-02-02T03:59:35.081Z,135.67
2024-02-02T04:00:10.993Z,136.00
2024-02-02T04:00:43.022Z,136.00
2024-02-02T04:01:14.928Z,136.00
2024-02-02T04:01:46.823Z,136.00
2024-02-02T04:02:18.689Z,135.33
2024-02-02T04:02:51.625Z,135.00
2024-02-02T04:03:23.541Z,135.00
2024-02-02T04:03:55.527Z,135.00
2024-02-02T04:04:27.451Z,135.00
2024-02-02T04:04:59.279Z,135.00
2024-02-02T04:05:31.281Z,135.00
2024-02-02T04:06:04.206Z,135.00
2024-02-02T04:06:36.022Z,135.00
2024-02-02T04:07:07.878Z,135.00
2024-02-02T04:07:39.903Z,135.00
2024-02-02T04:08:11.788Z,135.00
2024-02-02T04:08:44.302Z,135.00
2024-02-02T04:09:16.315Z,135.00
2024-02-02T04:09:48.139Z,134.33
2024-02-02T04:10:19.909Z,134.00
2024-02-02T04:10:51.701Z,134.00
2024-02-02T04:11:23.493Z,134.00
2024-02-02T04:11:55.393Z,134.00
2024-02-02T04:12:27.308Z,134.00
2024-02-02T04:12:59.391Z,133.00
2024-02-02T04:13:31.222Z,133.00
2024-02-02T04:14:02.980Z,132.67
2024-02-02T04:14:34.915Z,131.67
2024-02-02T04:15:07.715Z,130.67
2024-02-02T04:15:41.039Z,129.67
2024-02-02T04:16:13.223Z,128.33
2024-02-02T04:16:45.046Z,127.00
2024-02-02T04:17:16.969Z,127.00
2024-02-02T04:17:48.752Z,127.00
2024-02-02T04:18:20.804Z,127.00
2024-02-02T04:18:53.068Z,127.00
2024-02-02T04:19:25.146Z,127.67
2024-02-02T04:19:57.099Z,128.00
2024-02-02T04:20:28.897Z,128.00
2024-02-02T04:21:00.788Z,128.00
2024-02-02T04:21:32.697Z,128.00
2024-02-02T04:22:04.587Z,128.00
2024-02-02T04:22:36.444Z,128.00
2024-02-02T04:23:08.325Z,128.00
2024-02-02T04:23:40.107Z,128.00
2024-02-02T04:24:12.040Z,127.33
2024-02-02T04:24:44.976Z,127.67
2024-02-02T04:25:16.750Z,128.00
2024-02-02T04:25:48.531Z,128.00
2024-02-02T04:26:20.318Z,128.00
2024-02-02T04:26:52.198Z,128.33
2024-02-02T04:27:24.079Z,129.33
2024-02-02T04:27:56.018Z,130.33
2024-02-02T04:28:28.220Z,131.67
2024-02-02T04:28:59.998Z,133.33
2024-02-02T04:29:31.749Z,139.33
2024-02-02T04:30:05.039Z,148.33
2024-02-02T04:30:37.143Z,164.67
2024-02-02T04:31:09.079Z,185.67
2024-02-02T04:31:40.921Z,194.33
2024-02-02T04:32:12.803Z,206.00
2024-02-02T04:32:44.704Z,220.00
2024-02-02T04:33:16.873Z,235.67
2024-02-02T04:33:48.872Z,247.33
2024-02-02T04:34:20.871Z,253.00
2024-02-02T04:34:52.899Z,258.33
2024-02-02T04:35:24.919Z,266.00
2024-02-02T04:35:56.789Z,274.67
2024-02-02T04:36:28.823Z,280.33
2024-02-02T04:37:00.657Z,285.67
2024-02-02T04:37:32.412Z,290.00
2024-02-02T04:38:05.418Z,291.33
2024-02-02T04:38:37.245Z,295.00
2024-02-02T04:39:09.766Z,300.00
2024-02-02T04:39:41.556Z,306.67
2024-02-02T04:40:13.522Z,311.33
2024-02-02T04:40:48.650Z,319.00
2024-02-02T04:41:20.470Z,322.00
2024-02-02T04:41:52.312Z,322.00
2024-02-02T04:42:24.171Z,322.00
2024-02-02T04:42:56.139Z,317.00
2024-02-02T04:43:28.198Z,307.67
2024-02-02T04:44:00.053Z,299.33
2024-02-02T04:44:31.861Z,295.67
2024-02-02T04:45:03.932Z,292.67
2024-02-02T04:45:35.919Z,290.67
2024-02-02T04:46:07.728Z,291.00
2024-02-02T04:46:39.557Z,291.00
2024-02-02T04:47:11.394Z,291.33
2024-02-02T04:47:43.304Z,292.00
2024-02-02T04:48:15.522Z,294.00
2024-02-02T04:48:47.664Z,297.00
2024-02-02T04:49:19.715Z,299.00
2024-02-02T04:49:51.649Z,298.00
2024-02-02T04:50:26.768Z,293.33
2024-02-02T04:50:58.876Z,290.33
2024-02-02T04:51:30.801Z,288.33
2024-02-02T04:52:02.739Z,282.00
2024-02-02T04:52:34.998Z,266.33
2024-02-02T04:53:07.720Z,250.00
2024-02-02T04:53:39.547Z,245.67
2024-02-02T04:54:11.640Z,246.33
2024-02-02T04:54:43.531Z,245.67
2024-02-02T04:55:15.470Z,242.00
2024-02-02T04:55:47.256Z,234.33
2024-02-02T04:56:19.101Z,221.33
2024-02-02T04:56:50.896Z,207.67
2024-02-02T04:57:22.708Z,195.67
2024-02-02T04:57:54.549Z,179.67
2024-02-02T04:58:27.204Z,167.33
2024-02-02T04:58:58.982Z,155.67
2024-02-02T04:59:30.821Z,142.33
2024-02-02T05:00:02.712Z,135.00
2024-02-02T05:00:36.711Z,134.00
2024-02-02T05:01:08.841Z,137.00
2024-02-02T05:01:40.879Z,139.67
2024-02-02T05:02:12.851Z,138.67
2024-02-02T05:02:44.640Z,131.33
2024-02-02T05:03:16.512Z,125.67
2024-02-02T05:03:48.463Z,124.00
2024-02-02T05:04:20.479Z,122.33
2024-02-02T05:04:52.600Z,121.33
2024-02-02T05:05:24.458Z,120.67
2024-02-02T05:05:56.437Z,118.00
2024-02-02T05:06:28.338Z,115.67
2024-02-02T05:07:00.990Z,114.00
2024-02-02T05:07:33.209Z,114.00
2024-02-02T05:08:05.499Z,113.33
2024-02-02T05:08:37.321Z,112.67
2024-02-02T05:09:09.337Z,111.67
2024-02-02T05:09:41.147Z,110.00
2024-02-02T05:10:12.996Z,107.33
2024-02-02T05:10:44.942Z,104.67
2024-02-02T05:11:16.863Z,99.00
2024-02-02T05:11:48.676Z,96.00
2024-02-02T05:12:20.537Z,96.67
2024-02-02T05:12:52.436Z,96.67
2024-02-02T05:13:24.290Z,98.33
2024-02-02T05:13:56.214Z,99.33
2024-02-02T05:14:28.042Z,101.00
2024-02-02T05:14:59.916Z,100.67
2024-02-02T05:15:31.909Z,99.67
2024-02-02T05:16:03.942Z,98.33
2024-02-02T05:16:35.821Z,98.67
2024-02-02T05:17:07.678Z,98.00
2024-02-02T05:17:39.540Z,99.00
2024-02-02T05:18:12.110Z,99.33
2024-02-02T05:18:44.360Z,99.00
2024-02-02T05:19:16.307Z,98.33
2024-02-02T05:19:48.211Z,101.00
2024-02-02T05:20:20.025Z,102.67
2024-02-02T05:20:51.958Z,102.67
2024-02-02T05:21:23.786Z,104.00
2024-02-02T05:21:55.883Z,104.33
2024-02-02T05:22:27.778Z,105.33
2024-02-02T05:22:59.913Z,106.00
2024-02-02T05:23:31.779Z,107.00
2024-02-02T05:24:14.742Z,108.33
2024-02-02T05:24:55.457Z,112.33
2024-02-02T05:25:27.822Z,118.00
2024-02-02T05:25:59.671Z,123.33
2024-02-02T05:26:31.612Z,127.00
2024-02-02T05:27:03.810Z,129.33
2024-02-02T05:27:36.223Z,134.00
2024-02-02T05:28:08.134Z,137.33
2024-02-02T05:28:41.560Z,139.33
2024-02-02T05:29:14.039Z,140.33
2024-02-02T05:29:45.974Z,142.33
2024-02-02T05:30:17.863Z,145.67
2024-02-02T05:30:49.711Z,147.00
2024-02-02T05:31:21.564Z,149.00
2024-02-02T05:31:53.392Z,151.00
2024-02-02T05:32:25.373Z,150.67
2024-02-02T05:32:57.452Z,149.00
2024-02-02T05:33:29.589Z,147.00
2024-02-02T05:34:01.570Z,145.67
2024-02-02T05:34:33.581Z,145.00
2024-02-02T05:35:06.029Z,144.67
2024-02-02T05:35:37.901Z,144.00
2024-02-02T05:36:09.735Z,144.00
2024-02-02T05:36:41.604Z,144.00
2024-02-02T05:37:13.510Z,147.00
2024-02-02T05:37:45.313Z,160.00
2024-02-02T05:38:17.131Z,186.00
2024-02-02T05:38:48.979Z,213.67
2024-02-02T05:39:20.838Z,235.00
2024-02-02T05:39:52.661Z,247.00
2024-02-02T05:40:24.528Z,252.00
2024-02-02T05:40:56.346Z,250.00
2024-02-02T05:41:28.181Z,244.00
2024-02-02T05:42:00.528Z,239.67
2024-02-02T05:42:32.553Z,235.67
2024-02-02T05:43:04.605Z,227.67
2024-02-02T05:43:36.470Z,220.33
2024-02-02T05:44:08.328Z,217.00
2024-02-02T05:44:40.164Z,216.67
2024-02-02T05:45:12.112Z,218.00
2024-02-02T05:45:43.970Z,216.67
2024-02-02T05:46:15.794Z,214.67
2024-02-02T05:46:47.717Z,214.33
2024-02-02T05:47:19.545Z,214.67
2024-02-02T05:47:51.943Z,212.33
2024-02-02T05:48:23.922Z,211.33
2024-02-02T05:48:55.983Z,209.67
2024-02-02T05:49:28.090Z,208.67
2024-02-02T05:49:59.995Z,207.67
2024-02-02T05:50:31.882Z,206.33
2024-02-02T05:51:04.028Z,206.00
2024-02-02T05:51:36.027Z,205.00
2024-02-02T05:52:10.194Z,205.00
2024-02-02T05:52:42.198Z,205.00
2024-02-02T05:53:14.540Z,204.33
2024-02-02T05:53:46.630Z,204.00
2024-02-02T05:54:18.608Z,205.00
2024-02-02T05:54:50.464Z,206.00
2024-02-02T05:55:22.336Z,206.00
2024-02-02T05:55:54.110Z,207.33
2024-02-02T05:56:25.878Z,208.67
2024-02-02T05:56:57.868Z,213.67
2024-02-02T05:57:29.749Z,222.67
2024-02-02T05:58:01.698Z,233.00
2024-02-02T05:58:33.733Z,239.33
2024-02-02T05:59:05.613Z,242.67
2024-02-02T05:59:37.416Z,244.00
2024-02-02T06:00:12.036Z,245.33
2024-02-02T06:00:44.053Z,245.33
2024-02-02T06:01:15.936Z,247.00
2024-02-02T06:01:47.736Z,249.00
2024-02-02T06:02:19.505Z,247.67
2024-02-02T06:02:51.318Z,244.33
2024-02-02T06:03:23.192Z,241.33
2024-02-02T06:03:55.354Z,240.00
2024-02-02T06:04:27.500Z,238.33
2024-02-02T06:04:59.303Z,238.00
2024-02-02T06:05:34.073Z,238.00
2024-02-02T06:06:06.069Z,238.67
2024-02-02T06:06:37.921Z,239.33
2024-02-02T06:07:09.834Z,255.33
2024-02-02T06:07:41.827Z,277.67
2024-02-02T06:08:15.819Z,273.00
2024-02-02T06:08:47.590Z,263.67
2024-02-02T06:09:19.386Z,257.67
2024-02-02T06:09:51.196Z,258.00
2024-02-02T06:10:23.061Z,258.33
2024-02-02T06:10:54.890Z,258.00
2024-02-02T06:11:26.704Z,256.00
2024-02-02T06:11:58.697Z,253.67
2024-02-02T06:12:30.575Z,252.33
2024-02-02T06:13:02.401Z,250.33
2024-02-02T06:13:34.563Z,250.00
2024-02-02T06:14:06.458Z,250.00
2024-02-02T06:14:38.306Z,250.00
2024-02-02T06:15:10.297Z,250.00
2024-02-02T06:15:42.227Z,249.00
2024-02-02T06:16:14.082Z,248.33
2024-02-02T06:16:45.898Z,247.67
2024-02-02T06:17:17.749Z,247.00
2024-02-02T06:17:52.668Z,247.00
2024-02-02T06:18:25.545Z,247.67
2024-02-02T06:18:57.569Z,249.67
2024-02-02T06:19:29.689Z,268.33
2024-02-02T06:20:01.775Z,288.33
2024-02-02T06:20:33.957Z,296.33
2024-02-02T06:21:05.947Z,286.00
2024-02-02T06:21:37.954Z,274.33
2024-02-02T06:22:09.875Z,270.00
2024-02-02T06:22:41.710Z,267.67
2024-02-02T06:23:16.405Z,264.00
2024-02-02T06:23:48.196Z,256.67
2024-02-02T06:24:20.114Z,251.00
2024-02-02T06:24:52.052Z,247.67
2024-02-02T06:25:23.923Z,246.00
2024-02-02T06:25:55.720Z,243.67
2024-02-02T06:26:27.762Z,237.33
2024-02-02T06:26:59.617Z,227.67
2024-02-02T06:27:32.259Z,219.33
2024-02-02T06:28:04.289Z,214.33
2024-02-02T06:28:36.165Z,211.67
2024-02-02T06:29:08.153Z,209.00
2024-02-02T06:29:40.014Z,208.00
2024-02-02T06:30:13.053Z,206.33
2024-02-02T06:30:49.426Z,204.00
2024-02-02T06:31:22.984Z,199.33
2024-02-02T06:31:54.829Z,197.33
2024-02-02T06:32:26.770Z,195.33
2024-02-02T06:33:01.474Z,191.33
2024-02-02T06:33:33.672Z,191.33
2024-02-02T06:34:05.717Z,190.33
2024-02-02T06:34:38.538Z,190.00
2024-02-02T06:35:10.369Z,192.33
2024-02-02T06:35:43.180Z,193.67
2024-02-02T06:36:15.112Z,192.33
2024-02-02T06:36:47.010Z,191.33
2024-02-02T06:37:19.835Z,191.33
2024-02-02T06:37:51.620Z,187.00
2024-02-02T06:38:23.450Z,189.67
2024-02-02T06:38:56.815Z,192.33
2024-02-02T06:39:28.760Z,195.00
2024-02-02T06:40:04.765Z,196.33
2024-02-02T06:40:36.616Z,197.33
2024-02-02T06:41:11.750Z,198.33
2024-02-02T06:41:43.809Z,199.33
2024-02-02T06:42:15.852Z,200.00
2024-02-02T06:42:47.749Z,201.00
2024-02-02T06:43:19.603Z,202.00
2024-02-02T06:43:51.475Z,203.33
2024-02-02T06:44:23.337Z,204.67
2024-02-02T06:44:58.215Z,207.67
2024-02-02T06:45:30.645Z,212.67
2024-02-02T06:46:02.505Z,214.00
2024-02-02T06:46:34.561Z,214.00
2024-02-02T06:47:06.935Z,214.00